Ramrod Key, Florida
Current Conditions -  °F | °C
As of 8:53 PM on Saturday 22 Nov 2014 (Local Time) from KNQX Reporting Station
Few Clouds Few Clouds  
Wind Chill: 75°   Ceiling: Unl
Heat Index: 75°   Visibility: 10mi
Dew Point: 72°   Wind: 16mph
Humidity: 90%   Direction: 90°E
Pressure: 30.04"   Gusts: NA
Location:  24.6465°N, 81.5399°W
Report Text: KNQX 230153Z 09014KT 10SM FEW018 FEW120 24/22 A3004 RMK AO2 SLP170 T02390222 $
Loading
Personal Weather Stations






























Interactive Weather Map New forecast layout! Learn more

10-Day Weather Forecast

Advertisements
Track Severe Weather on mobile